createdAt,value
2018-09-27T00:00:21.128Z,68.93
2018-09-27T00:02:50.012Z,68.99
2018-09-27T00:05:18.847Z,69.39
2018-09-27T00:07:47.709Z,69.57
2018-09-27T00:10:16.587Z,69.68
2018-09-27T00:12:45.447Z,69.56
2018-09-27T00:15:14.288Z,69.60
2018-09-27T00:17:43.127Z,69.25
2018-09-27T00:20:11.961Z,68.84
2018-09-27T00:22:40.808Z,68.66
2018-09-27T00:25:09.633Z,68.69
2018-09-27T00:27:38.490Z,69.06
2018-09-27T00:30:07.310Z,68.92
2018-09-27T00:32:36.135Z,69.64
2018-09-27T00:35:05.110Z,70.32
2018-09-27T00:37:33.935Z,70.32
2018-09-27T00:40:02.768Z,70.38
2018-09-27T00:42:31.644Z,69.91
2018-09-27T00:45:00.461Z,69.66
2018-09-27T00:47:29.313Z,69.73
2018-09-27T00:49:58.126Z,70.41
2018-09-27T00:52:26.987Z,69.34
2018-09-27T00:54:55.820Z,70.21
2018-09-27T00:57:24.664Z,69.01
2018-09-27T00:59:53.538Z,69.90
2018-09-27T01:02:22.350Z,69.71
2018-09-27T01:04:51.230Z,69.69
2018-09-27T01:07:20.056Z,69.97
2018-09-27T01:09:48.908Z,69.84
2018-09-27T01:12:17.740Z,69.96
2018-09-27T01:14:46.735Z,69.04
2018-09-27T01:17:15.571Z,69.69
2018-09-27T01:19:44.430Z,70.08
2018-09-27T01:22:13.255Z,69.99
2018-09-27T01:24:42.116Z,70.18
2018-09-27T01:27:10.952Z,70.24
2018-09-27T01:29:39.767Z,70.24
2018-09-27T01:32:08.621Z,70.54
2018-09-27T01:34:37.452Z,70.15
2018-09-27T01:37:06.364Z,70.04
2018-09-27T01:39:35.203Z,70.56
2018-09-27T01:42:04.019Z,71.43
2018-09-27T01:44:32.871Z,71.39
2018-09-27T01:47:01.735Z,71.27
2018-09-27T01:49:30.564Z,70.92
2018-09-27T01:51:59.401Z,71.17
2018-09-27T01:54:28.269Z,71.19
2018-09-27T01:56:57.107Z,71.13
2018-09-27T01:59:25.927Z,71.01
2018-09-27T02:01:54.778Z,70.04
2018-09-27T02:04:23.631Z,70.13
2018-09-27T02:06:52.478Z,69.49
2018-09-27T02:09:21.303Z,69.04
2018-09-27T02:11:50.158Z,67.82
2018-09-27T02:14:19.080Z,68.77
2018-09-27T02:16:48.002Z,69.05
2018-09-27T02:19:17.105Z,69.34
2018-09-27T02:21:46.003Z,69.72
2018-09-27T02:24:14.870Z,69.84
2018-09-27T02:26:43.708Z,69.45
2018-09-27T02:29:12.555Z,69.07
2018-09-27T02:31:41.422Z,68.74
2018-09-27T02:34:10.238Z,69.20
2018-09-27T02:36:39.091Z,69.82
2018-09-27T02:39:09.198Z,70.02
2018-09-27T02:41:38.326Z,70.40
2018-09-27T02:44:07.278Z,70.35
2018-09-27T02:46:36.108Z,69.94
2018-09-27T02:49:04.989Z,70.37
2018-09-27T02:51:33.834Z,70.53
2018-09-27T02:54:02.666Z,70.62
2018-09-27T02:56:31.497Z,70.91
2018-09-27T02:59:00.319Z,70.88
2018-09-27T03:01:29.164Z,71.24
2018-09-27T03:03:58.013Z,71.83
2018-09-27T03:06:26.831Z,72.23
2018-09-27T03:08:55.685Z,72.19
2018-09-27T03:11:24.504Z,72.43
2018-09-27T03:13:53.425Z,71.35
2018-09-27T03:16:22.170Z,71.92
2018-09-27T03:18:51.026Z,71.88
2018-09-27T03:21:19.845Z,71.43
2018-09-27T03:23:48.715Z,71.44
2018-09-27T03:26:17.543Z,71.56
2018-09-27T03:28:46.396Z,71.81
2018-09-27T03:31:15.240Z,71.96
2018-09-27T03:33:44.090Z,71.87
2018-09-27T03:36:12.936Z,72.30
2018-09-27T03:38:41.770Z,72.69
2018-09-27T03:41:10.655Z,72.50
2018-09-27T03:43:39.453Z,72.33
2018-09-27T03:46:08.308Z,72.13
2018-09-27T03:48:37.160Z,71.64
2018-09-27T03:51:06.276Z,71.21
2018-09-27T03:53:35.137Z,71.17
2018-09-27T03:56:03.985Z,71.37
2018-09-27T03:58:32.865Z,71.43
2018-09-27T04:01:01.698Z,71.29
2018-09-27T04:03:30.546Z,70.13
2018-09-27T04:05:59.361Z,69.32
2018-09-27T04:08:28.314Z,68.43
2018-09-27T04:10:57.390Z,68.77
2018-09-27T04:13:26.237Z,69.49
2018-09-27T04:15:55.197Z,69.83
2018-09-27T04:18:23.920Z,70.08
2018-09-27T04:20:53.359Z,70.22
2018-09-27T04:23:23.398Z,70.68
2018-09-27T04:25:52.699Z,71.12
2018-09-27T04:28:22.014Z,71.13
2018-09-27T04:30:50.857Z,70.52
2018-09-27T04:33:19.715Z,69.21
2018-09-27T04:35:48.537Z,69.25
2018-09-27T04:38:17.374Z,68.83
2018-09-27T04:40:46.200Z,68.64
2018-09-27T04:43:15.014Z,68.73
2018-09-27T04:45:43.876Z,68.03
2018-09-27T04:48:12.686Z,66.69
2018-09-27T04:50:41.518Z,66.75
2018-09-27T04:53:10.335Z,66.81
2018-09-27T04:55:39.180Z,66.99
2018-09-27T04:58:08.011Z,67.32
2018-09-27T05:00:36.938Z,67.34
2018-09-27T05:03:05.855Z,67.54
2018-09-27T05:05:34.696Z,67.02
2018-09-27T05:08:03.548Z,66.88
2018-09-27T05:10:32.377Z,66.99
2018-09-27T05:13:01.293Z,66.65
2018-09-27T05:15:30.204Z,67.41
2018-09-27T05:17:58.974Z,68.08
2018-09-27T05:20:27.841Z,68.54
2018-09-27T05:22:56.689Z,69.13
2018-09-27T05:25:25.531Z,69.56
2018-09-27T05:27:54.431Z,69.86
2018-09-27T05:30:23.286Z,69.70
2018-09-27T05:32:52.150Z,69.55
2018-09-27T05:35:21.029Z,69.70
2018-09-27T05:37:49.893Z,70.20
2018-09-27T05:40:18.752Z,70.51
2018-09-27T05:42:47.553Z,70.77
2018-09-27T05:45:16.403Z,70.93
2018-09-27T05:47:45.245Z,70.79
2018-09-27T05:50:14.086Z,70.70
2018-09-27T05:52:42.902Z,70.45
2018-09-27T05:55:11.738Z,70.42
2018-09-27T05:57:40.588Z,70.82
2018-09-27T06:00:09.400Z,70.94
2018-09-27T06:02:38.256Z,71.08
2018-09-27T06:05:07.158Z,70.95
2018-09-27T06:07:35.986Z,70.72
2018-09-27T06:10:04.942Z,70.68
2018-09-27T06:12:33.830Z,70.83
2018-09-27T06:15:02.668Z,70.66
2018-09-27T06:17:31.517Z,70.57
2018-09-27T06:20:00.352Z,70.73
2018-09-27T06:22:29.209Z,70.90
2018-09-27T06:24:58.046Z,70.78
2018-09-27T06:27:26.926Z,71.11
2018-09-27T06:29:55.709Z,70.84
2018-09-27T06:32:24.568Z,70.41
2018-09-27T06:34:53.399Z,69.79
2018-09-27T06:37:22.289Z,68.58
2018-09-27T06:39:51.115Z,68.97
2018-09-27T06:42:19.941Z,69.15
2018-09-27T06:44:48.770Z,68.25
2018-09-27T06:47:17.594Z,68.61
2018-09-27T06:49:46.500Z,67.57
2018-09-27T06:52:15.333Z,66.83
2018-09-27T06:54:44.257Z,66.80
2018-09-27T06:57:13.006Z,65.92
2018-09-27T06:59:41.861Z,65.09
2018-09-27T07:02:10.672Z,64.60
2018-09-27T07:04:39.511Z,64.36
2018-09-27T07:07:08.365Z,64.01
2018-09-27T07:09:37.187Z,63.45
2018-09-27T07:12:06.040Z,61.98
2018-09-27T07:14:34.905Z,61.63
2018-09-27T07:17:03.674Z,61.15
2018-09-27T07:19:32.520Z,59.13
2018-09-27T07:22:01.361Z,59.95
2018-09-27T07:24:30.182Z,60.17
2018-09-27T07:26:59.076Z,60.19
2018-09-27T07:29:27.831Z,59.57
2018-09-27T07:31:56.673Z,59.16
2018-09-27T07:34:25.467Z,59.28
2018-09-27T07:36:54.306Z,58.39
2018-09-27T07:39:23.174Z,58.66
2018-09-27T07:41:52.007Z,58.86
2018-09-27T07:44:20.826Z,58.90
2018-09-27T07:46:49.661Z,59.08
2018-09-27T07:49:18.516Z,59.60
2018-09-27T07:51:47.377Z,59.48
2018-09-27T07:54:16.227Z,59.25
2018-09-27T07:56:45.070Z,59.02
2018-09-27T07:59:13.909Z,58.93
2018-09-27T08:01:42.737Z,57.06
2018-09-27T08:04:11.617Z,57.82
2018-09-27T08:06:40.430Z,57.59
2018-09-27T08:09:09.808Z,57.11
2018-09-27T08:11:39.479Z,55.46
2018-09-27T08:14:08.610Z,55.51
2018-09-27T08:16:37.502Z,54.59
2018-09-27T08:19:06.322Z,54.85
2018-09-27T08:21:35.181Z,53.55
2018-09-27T08:24:04.161Z,53.46
2018-09-27T08:26:32.950Z,53.23
2018-09-27T08:29:01.742Z,51.71
2018-09-27T08:31:30.616Z,49.16
2018-09-27T08:33:59.476Z,48.81
2018-09-27T08:36:28.353Z,48.91
2018-09-27T08:38:57.210Z,46.49
2018-09-27T08:41:26.033Z,48.87
2018-09-27T08:43:54.885Z,48.66
2018-09-27T08:46:23.719Z,48.31
2018-09-27T08:48:52.577Z,47.98
2018-09-27T08:51:21.416Z,46.91
2018-09-27T08:53:50.278Z,49.17
2018-09-27T08:56:19.221Z,48.59
2018-09-27T08:58:47.999Z,47.40
2018-09-27T09:01:16.857Z,47.20
2018-09-27T09:03:45.794Z,45.37
2018-09-27T09:06:14.588Z,45.21
2018-09-27T09:08:43.441Z,43.59
2018-09-27T09:11:12.296Z,42.31
2018-09-27T09:13:41.251Z,40.21
2018-09-27T09:16:10.048Z,41.27
2018-09-27T09:18:38.890Z,40.57
2018-09-27T09:21:08.231Z,39.44
2018-09-27T09:23:37.165Z,38.59
2018-09-27T09:26:06.074Z,40.24
2018-09-27T09:28:35.011Z,39.68
2018-09-27T09:31:03.787Z,38.16
2018-09-27T09:33:32.626Z,34.94
2018-09-27T09:36:01.487Z,31.04
2018-09-27T09:38:30.269Z,31.53
2018-09-27T09:40:59.114Z,32.15
2018-09-27T09:43:27.965Z,31.42
2018-09-27T09:45:56.818Z,28.81
2018-09-27T09:48:25.658Z,27.62
2018-09-27T09:50:54.513Z,26.86
2018-09-27T09:53:23.360Z,26.37
2018-09-27T09:55:52.160Z,24.40
2018-09-27T09:58:21.108Z,24.58
2018-09-27T10:00:49.941Z,23.60
2018-09-27T10:03:18.773Z,23.67
2018-09-27T10:05:47.613Z,22.99
2018-09-27T10:08:16.458Z,23.21
2018-09-27T10:10:45.273Z,22.57
2018-09-27T10:13:14.141Z,23.81
2018-09-27T10:15:42.989Z,22.54
2018-09-27T10:18:11.855Z,23.26
2018-09-27T10:20:40.694Z,22.01
2018-09-27T10:23:10.014Z,23.04
2018-09-27T10:25:39.076Z,22.65
2018-09-27T10:28:07.916Z,22.91
2018-09-27T10:30:36.743Z,22.87
2018-09-27T10:33:05.673Z,23.38
2018-09-27T10:35:34.454Z,23.36
2018-09-27T10:38:03.545Z,23.35
2018-09-27T10:40:32.661Z,22.61
2018-09-27T10:43:01.728Z,22.66
2018-09-27T10:45:30.674Z,23.20
2018-09-27T10:47:59.515Z,22.48
2018-09-27T10:50:28.371Z,19.93
2018-09-27T10:52:57.209Z,22.12
2018-09-27T10:55:26.054Z,21.93
2018-09-27T10:57:54.881Z,21.31
2018-09-27T11:00:24.277Z,21.74
2018-09-27T11:02:53.504Z,21.54
2018-09-27T11:05:22.329Z,20.99
2018-09-27T11:07:51.281Z,21.13
2018-09-27T11:10:20.125Z,22.83
2018-09-27T11:12:48.992Z,22.18
2018-09-27T11:15:17.826Z,21.63
2018-09-27T11:17:46.674Z,22.04
2018-09-27T11:20:15.514Z,20.62
2018-09-27T11:22:44.379Z,19.23
2018-09-27T11:25:13.217Z,19.97
2018-09-27T11:27:42.111Z,21.71
2018-09-27T11:30:28.478Z,22.87
2018-09-27T11:32:57.377Z,24.37
2018-09-27T11:35:26.161Z,25.83
2018-09-27T11:37:55.037Z,26.44
2018-09-27T11:40:23.896Z,26.17
2018-09-27T11:42:52.800Z,27.45
2018-09-27T11:45:21.562Z,27.06
2018-09-27T11:47:50.379Z,27.24
2018-09-27T11:50:19.344Z,28.73
2018-09-27T11:52:48.069Z,28.52
2018-09-27T11:55:16.910Z,29.08
2018-09-27T11:57:45.743Z,29.58
2018-09-27T12:00:15.184Z,29.24
2018-09-27T12:02:44.018Z,28.41
2018-09-27T12:05:12.824Z,28.84
2018-09-27T12:07:41.699Z,27.40
2018-09-27T12:10:10.504Z,27.32
2018-09-27T12:12:39.328Z,27.08
2018-09-27T12:15:08.534Z,26.98
2018-09-27T12:17:37.432Z,28.71
2018-09-27T12:20:06.284Z,27.47
2018-09-27T12:22:35.043Z,27.01
2018-09-27T12:25:03.927Z,28.37
2018-09-27T12:27:32.792Z,28.31
2018-09-27T12:30:01.636Z,28.07
2018-09-27T12:32:30.479Z,28.10
2018-09-27T12:34:59.310Z,27.94
2018-09-27T12:37:28.163Z,28.11
2018-09-27T12:39:56.999Z,27.17
2018-09-27T12:42:25.849Z,28.92
2018-09-27T12:44:54.706Z,28.00
2018-09-27T12:47:23.527Z,27.72
2018-09-27T12:49:52.347Z,27.99
2018-09-27T12:52:21.427Z,28.45
2018-09-27T12:54:49.992Z,28.59
2018-09-27T12:57:18.823Z,28.29
2018-09-27T12:59:47.688Z,27.52
2018-09-27T13:02:16.642Z,28.56
2018-09-27T13:04:45.339Z,29.56
2018-09-27T13:07:14.175Z,28.14
2018-09-27T13:09:43.192Z,28.03
2018-09-27T13:12:11.922Z,27.24
2018-09-27T13:14:40.775Z,27.57
2018-09-27T13:17:09.695Z,28.32
2018-09-27T13:19:38.649Z,28.04
2018-09-27T13:22:07.326Z,28.03
2018-09-27T13:24:36.301Z,28.21
2018-09-27T13:27:05.165Z,28.81
2018-09-27T13:29:33.911Z,28.50
2018-09-27T13:32:02.900Z,27.87
2018-09-27T13:34:31.682Z,28.97
2018-09-27T13:37:00.579Z,28.33
2018-09-27T13:39:29.363Z,29.15
2018-09-27T13:41:58.190Z,28.14
2018-09-27T13:44:27.009Z,28.34
2018-09-27T13:46:55.855Z,28.69
2018-09-27T13:49:24.670Z,28.28
2018-09-27T13:51:53.536Z,28.66
2018-09-27T13:54:22.359Z,29.43
2018-09-27T13:56:51.220Z,29.97
2018-09-27T13:59:20.025Z,29.04
2018-09-27T14:01:48.861Z,29.75
2018-09-27T14:04:17.666Z,29.75
2018-09-27T14:06:46.517Z,30.58
2018-09-27T14:09:15.328Z,30.56
2018-09-27T14:11:44.208Z,32.28
2018-09-27T14:14:13.032Z,30.32
2018-09-27T14:16:41.856Z,30.87
2018-09-27T14:19:10.674Z,29.79
2018-09-27T14:21:39.534Z,30.57
2018-09-27T14:24:08.359Z,30.13
2018-09-27T14:26:37.222Z,30.58
2018-09-27T14:29:06.165Z,31.61
2018-09-27T14:31:34.955Z,30.35
2018-09-27T14:34:03.790Z,31.36
2018-09-27T14:36:32.665Z,31.57
2018-09-27T14:39:01.469Z,30.47
2018-09-27T14:41:30.328Z,31.26
2018-09-27T14:43:59.150Z,30.71
2018-09-27T14:46:27.990Z,30.81
2018-09-27T14:48:56.845Z,30.73
2018-09-27T14:51:25.658Z,32.71
2018-09-27T14:53:54.497Z,32.61
2018-09-27T14:56:23.442Z,32.18
2018-09-27T14:58:52.145Z,32.87
2018-09-27T15:01:20.968Z,32.61
2018-09-27T15:03:49.805Z,32.15
2018-09-27T15:06:18.641Z,31.85
2018-09-27T15:08:47.467Z,32.13
2018-09-27T15:11:16.306Z,32.25
2018-09-27T15:13:45.171Z,32.96
2018-09-27T15:16:14.072Z,32.30
2018-09-27T15:18:42.848Z,32.52
2018-09-27T15:21:11.713Z,32.85
2018-09-27T15:23:40.604Z,33.03
2018-09-27T15:26:09.385Z,32.65
2018-09-27T15:28:38.211Z,33.21
2018-09-27T15:31:07.257Z,32.79
2018-09-27T15:33:36.085Z,33.54
2018-09-27T15:36:05.237Z,33.62
2018-09-27T15:38:34.060Z,32.71
2018-09-27T15:41:02.868Z,32.59
2018-09-27T15:43:31.736Z,32.78
2018-09-27T15:46:00.564Z,32.27
2018-09-27T15:48:29.423Z,32.65
2018-09-27T15:50:58.278Z,33.04
2018-09-27T15:53:27.095Z,32.65
2018-09-27T15:55:55.938Z,33.11
2018-09-27T15:58:24.808Z,33.33
2018-09-27T16:00:53.602Z,33.69
2018-09-27T16:03:22.422Z,33.21
2018-09-27T16:05:51.255Z,33.60
2018-09-27T16:08:20.115Z,33.86
2018-09-27T16:10:48.935Z,34.29
2018-09-27T16:13:17.788Z,34.20
2018-09-27T16:15:46.628Z,33.79
2018-09-27T16:18:15.469Z,34.70
2018-09-27T16:20:44.341Z,35.15
2018-09-27T16:23:13.148Z,34.96
2018-09-27T16:25:41.988Z,35.49
2018-09-27T16:28:10.834Z,35.41
2018-09-27T16:30:39.655Z,35.88
2018-09-27T16:33:08.521Z,35.96
2018-09-27T16:35:37.344Z,36.16
2018-09-27T16:38:06.490Z,36.53
2018-09-27T16:40:35.320Z,36.61
2018-09-27T16:43:04.177Z,36.91
2018-09-27T16:45:33.105Z,37.55
2018-09-27T16:48:02.121Z,38.29
2018-09-27T16:50:30.943Z,38.72
2018-09-27T16:52:59.768Z,39.43
2018-09-27T16:55:28.556Z,40.79
2018-09-27T16:57:57.387Z,42.09
2018-09-27T17:00:26.210Z,42.97
2018-09-27T17:02:56.596Z,43.74
2018-09-27T17:05:25.464Z,43.55
2018-09-27T17:07:54.237Z,44.16
2018-09-27T17:10:23.084Z,44.49
2018-09-27T17:12:51.919Z,44.87
2018-09-27T17:15:20.759Z,45.64
2018-09-27T17:17:49.584Z,45.66
2018-09-27T17:20:18.415Z,46.59
2018-09-27T17:22:47.232Z,47.26
2018-09-27T17:25:16.081Z,48.12
2018-09-27T17:27:44.944Z,48.51
2018-09-27T17:30:13.739Z,48.69
2018-09-27T17:32:42.574Z,49.31
2018-09-27T17:35:11.409Z,49.57
2018-09-27T17:37:40.272Z,50.20
2018-09-27T17:40:09.057Z,50.86
2018-09-27T17:42:37.865Z,51.12
2018-09-27T17:45:06.713Z,51.68
2018-09-27T17:47:35.545Z,51.82
2018-09-27T17:50:04.410Z,52.31
2018-09-27T17:52:33.240Z,52.55
2018-09-27T17:55:02.082Z,53.18
2018-09-27T17:57:30.935Z,53.32
2018-09-27T17:59:59.793Z,53.28
2018-09-27T18:02:28.686Z,53.75
2018-09-27T18:04:57.513Z,53.72
2018-09-27T18:07:26.438Z,53.72
2018-09-27T18:09:55.227Z,53.74
2018-09-27T18:12:24.075Z,54.05
2018-09-27T18:14:52.945Z,54.27
2018-09-27T18:17:21.790Z,54.60
2018-09-27T18:19:50.630Z,54.55
2018-09-27T18:22:19.465Z,55.16
2018-09-27T18:24:48.299Z,54.69
2018-09-27T18:27:17.143Z,55.64
2018-09-27T18:29:45.990Z,55.62
2018-09-27T18:32:14.866Z,55.75
2018-09-27T18:34:43.837Z,56.35
2018-09-27T18:37:12.575Z,56.80
2018-09-27T18:39:41.346Z,56.20
2018-09-27T18:42:10.183Z,56.95
2018-09-27T18:44:39.041Z,56.96
2018-09-27T18:47:07.938Z,57.17
2018-09-27T18:49:36.791Z,57.61
2018-09-27T18:52:05.643Z,58.03
2018-09-27T18:54:34.482Z,58.33
2018-09-27T18:57:03.324Z,58.57
2018-09-27T18:59:32.172Z,58.38
2018-09-27T19:02:01.031Z,59.11
2018-09-27T19:04:29.887Z,59.31
2018-09-27T19:06:58.747Z,59.36
2018-09-27T19:09:27.625Z,59.87
2018-09-27T19:11:56.444Z,59.61
2018-09-27T19:14:25.292Z,59.40
2018-09-27T19:16:54.230Z,59.97
2018-09-27T19:19:22.984Z,60.11
2018-09-27T19:21:51.791Z,60.64
2018-09-27T19:24:20.618Z,60.67
2018-09-27T19:26:49.452Z,59.46
2018-09-27T19:29:18.262Z,60.75
2018-09-27T19:31:47.097Z,59.64
2018-09-27T19:34:15.912Z,60.77
2018-09-27T19:36:44.726Z,60.98
2018-09-27T19:39:13.664Z,60.97
2018-09-27T19:41:42.444Z,61.66
2018-09-27T19:44:11.291Z,62.03
2018-09-27T19:46:40.164Z,62.19
2018-09-27T19:49:09.107Z,62.44
2018-09-27T19:51:37.961Z,62.69
2018-09-27T19:54:06.778Z,62.89
2018-09-27T19:56:35.620Z,62.49
2018-09-27T19:59:04.440Z,63.36
2018-09-27T20:01:33.260Z,63.47
2018-09-27T20:04:02.179Z,63.60
2018-09-27T20:06:30.961Z,63.27
2018-09-27T20:08:59.807Z,63.64
2018-09-27T20:11:28.709Z,63.65
2018-09-27T20:13:57.547Z,63.78
2018-09-27T20:16:26.392Z,63.93
2018-09-27T20:18:55.198Z,64.12
2018-09-27T20:21:24.032Z,64.09
2018-09-27T20:23:52.947Z,64.34
2018-09-27T20:26:21.764Z,64.64
2018-09-27T20:28:50.598Z,64.76
2018-09-27T20:31:19.488Z,64.95
2018-09-27T20:33:48.301Z,65.06
2018-09-27T20:36:17.148Z,65.17
2018-09-27T20:38:45.963Z,65.07
2018-09-27T20:41:14.809Z,64.93
2018-09-27T20:43:43.641Z,65.27
2018-09-27T20:46:12.479Z,65.39
2018-09-27T20:48:41.318Z,65.57
2018-09-27T20:51:10.174Z,65.56
2018-09-27T20:53:39.001Z,65.76
2018-09-27T20:56:07.807Z,66.11
2018-09-27T20:58:36.668Z,66.26
2018-09-27T21:01:05.466Z,66.48
2018-09-27T21:03:34.385Z,66.17
2018-09-27T21:06:03.262Z,66.12
2018-09-27T21:08:32.089Z,65.69
2018-09-27T21:11:00.929Z,65.77
2018-09-27T21:13:29.772Z,66.03
2018-09-27T21:15:58.694Z,66.03
2018-09-27T21:18:27.535Z,66.58
2018-09-27T21:20:56.370Z,66.52
2018-09-27T21:23:25.184Z,66.34
2018-09-27T21:25:54.013Z,66.32
2018-09-27T21:28:22.859Z,65.37
2018-09-27T21:30:51.703Z,66.18
2018-09-27T21:33:20.556Z,66.57
2018-09-27T21:35:49.384Z,66.68
2018-09-27T21:38:18.764Z,65.77
2018-09-27T21:40:47.627Z,66.63
2018-09-27T21:43:16.614Z,66.83
2018-09-27T21:45:45.389Z,67.00
2018-09-27T21:48:14.220Z,67.15
2018-09-27T21:50:43.115Z,66.54
2018-09-27T21:53:11.895Z,66.94
2018-09-27T21:55:40.744Z,67.18
2018-09-27T21:58:09.567Z,66.67
2018-09-27T22:00:38.428Z,66.54
2018-09-27T22:03:07.249Z,66.90
2018-09-27T22:05:36.102Z,66.95
2018-09-27T22:08:04.935Z,67.24
2018-09-27T22:10:33.782Z,67.06
2018-09-27T22:13:02.616Z,66.93
2018-09-27T22:15:31.483Z,66.91
2018-09-27T22:18:00.306Z,66.48
2018-09-27T22:20:29.140Z,65.67
2018-09-27T22:22:57.989Z,66.38
2018-09-27T22:25:26.842Z,66.58
2018-09-27T22:27:55.681Z,66.53
2018-09-27T22:30:24.500Z,66.45
2018-09-27T22:32:53.345Z,67.37
2018-09-27T22:35:22.204Z,67.58
2018-09-27T22:37:51.035Z,68.00
2018-09-27T22:40:19.871Z,66.88
2018-09-27T22:42:48.696Z,68.04
2018-09-27T22:45:17.542Z,66.74
2018-09-27T22:47:46.364Z,67.54
2018-09-27T22:50:15.189Z,67.84
2018-09-27T22:52:44.043Z,67.54
2018-09-27T22:55:12.890Z,67.42
2018-09-27T22:57:41.741Z,67.25
2018-09-27T23:00:10.594Z,67.13
2018-09-27T23:02:39.454Z,67.06
2018-09-27T23:05:08.284Z,66.87
2018-09-27T23:07:37.085Z,67.24
2018-09-27T23:10:05.932Z,65.71
2018-09-27T23:12:34.758Z,66.79
2018-09-27T23:15:03.611Z,66.49
2018-09-27T23:17:32.437Z,66.53
2018-09-27T23:20:01.251Z,66.41
2018-09-27T23:22:30.083Z,65.25
2018-09-27T23:24:58.944Z,66.52
2018-09-27T23:27:27.776Z,66.37
2018-09-27T23:29:56.623Z,66.28
2018-09-27T23:32:25.454Z,66.79
2018-09-27T23:34:54.282Z,67.33
2018-09-27T23:37:23.144Z,67.41
2018-09-27T23:39:51.969Z,67.27
2018-09-27T23:42:20.802Z,67.70
2018-09-27T23:44:49.621Z,67.61
2018-09-27T23:47:18.451Z,66.10
2018-09-27T23:49:47.276Z,67.60
2018-09-27T23:52:16.122Z,67.77
2018-09-27T23:54:44.989Z,67.68
2018-09-27T23:57:13.856Z,67.46
2018-09-27T23:59:42.682Z,67.29
